Terminal Aerodrome Forecast
Issued by NWS Boston, MA

Home | Current Version | Previous Version | Text Only | Print | Product List | Glossary On
Versions: 1 2 3 4 5 6 7 8 9 10 11 12 13 14 15 16 17 18 19 20 21 22 23 24 25 26 27 28 29 30 31 32 33 34 35 36 37 38 39 40
000
FTUS41 KBOX 031730
TAFBOS
TAF
KBOS 031730Z 0318/0424 27010KT P6SM OVC200
     FM032100 18009KT P6SM BKN100
     FM040000 17013G22KT 1SM -SN OVC040
     FM040300 18013KT 1SM -SN OVC010
     FM040500 20013KT 5SM -FZRAPL OVC008
     FM040900 23011KT P6SM OVC008
     FM041300 25012KT P6SM OVC120
     FM041800 26008KT P6SM BKN250=

USA.gov is the U.S. government's official web portal to all federal, state and local government web resources and services.